sensor_id;sensor_type;location;lat;lon;timestamp;temperature;humidity
35607;DHT22;21729;58.392;15.656;2023-06-19T06:26:47;19.20;99.90
35607;DHT22;21729;58.392;15.656;2023-06-19T06:29:15;19.50;99.90
35607;DHT22;21729;58.392;15.656;2023-06-19T06:31:46;18.90;99.90
35607;DHT22;21729;58.392;15.656;2023-06-19T06:34:14;18.40;99.90
35607;DHT22;21729;58.392;15.656;2023-06-19T06:36:41;18.60;99.90
35607;DHT22;21729;58.392;15.656;2023-06-19T06:39:09;18.40;99.90
35607;DHT22;21729;58.392;15.656;2023-06-19T06:41:36;18.10;99.90
35607;DHT22;21729;58.392;15.656;2023-06-19T06:44:05;18.10;99.90
35607;DHT22;21729;58.392;15.656;2023-06-19T06:46:32;18.10;99.90
35607;DHT22;21729;58.392;15.656;2023-06-19T06:49:00;17.90;99.90
35607;DHT22;21729;58.392;15.656;2023-06-19T06:51:27;17.80;99.90
35607;DHT22;21729;58.392;15.656;2023-06-19T06:53:54;17.80;99.90
35607;DHT22;21729;58.392;15.656;2023-06-19T06:56:21;17.80;99.90
35607;DHT22;21729;58.392;15.656;2023-06-19T06:58:48;17.90;99.90
35607;DHT22;21729;58.392;15.656;2023-06-19T07:01:17;18.10;99.90
35607;DHT22;21729;58.392;15.656;2023-06-19T07:03:44;18.50;99.90
35607;DHT22;21729;58.392;15.656;2023-06-19T07:06:11;18.30;99.90
35607;DHT22;21729;58.392;15.656;2023-06-19T07:08:38;18.30;99.90
35607;DHT22;21729;58.392;15.656;2023-06-19T07:11:06;18.00;99.90
35607;DHT22;21729;58.392;15.656;2023-06-19T07:13:33;18.00;99.90
35607;DHT22;21729;58.392;15.656;2023-06-19T07:16:00;17.80;99.90
35607;DHT22;21729;58.392;15.656;2023-06-19T07:18:29;17.50;99.90
35607;DHT22;21729;58.392;15.656;2023-06-19T07:20:56;17.40;99.90
35607;DHT22;21729;58.392;15.656;2023-06-19T07:23:23;17.40;99.90
35607;DHT22;21729;58.392;15.656;2023-06-19T07:25:50;17.10;99.90
35607;DHT22;21729;58.392;15.656;2023-06-19T07:28:17;17.30;99.90
35607;DHT22;21729;58.392;15.656;2023-06-19T07:30:44;17.40;99.90
35607;DHT22;21729;58.392;15.656;2023-06-19T07:33:13;17.60;99.90
35607;DHT22;21729;58.392;15.656;2023-06-19T07:35:42;17.70;99.90
35607;DHT22;21729;58.392;15.656;2023-06-19T07:38:09;17.80;99.90
35607;DHT22;21729;58.392;15.656;2023-06-19T07:40:36;17.80;99.90
35607;DHT22;21729;58.392;15.656;2023-06-19T07:43:04;17.80;99.90
35607;DHT22;21729;58.392;15.656;2023-06-19T07:45:31;17.80;99.90
35607;DHT22;21729;58.392;15.656;2023-06-19T07:47:58;18.00;99.90
35607;DHT22;21729;58.392;15.656;2023-06-19T07:50:25;18.10;99.90
35607;DHT22;21729;58.392;15.656;2023-06-19T07:52:54;18.20;99.90
35607;DHT22;21729;58.392;15.656;2023-06-19T07:55:21;18.10;99.90
35607;DHT22;21729;58.392;15.656;2023-06-19T07:57:48;18.40;99.90
35607;DHT22;21729;58.392;15.656;2023-06-19T08:00:16;18.30;99.90
35607;DHT22;21729;58.392;15.656;2023-06-19T08:02:43;18.00;99.90
35607;DHT22;21729;58.392;15.656;2023-06-19T08:05:10;17.80;99.90
35607;DHT22;21729;58.392;15.656;2023-06-19T08:07:38;17.80;99.90
35607;DHT22;21729;58.392;15.656;2023-06-19T08:10:07;17.70;99.90
35607;DHT22;21729;58.392;15.656;2023-06-19T08:12:35;17.50;99.90
35607;DHT22;21729;58.392;15.656;2023-06-19T08:15:02;17.70;99.90
35607;DHT22;21729;58.392;15.656;2023-06-19T08:17:29;17.80;99.90
35607;DHT22;21729;58.392;15.656;2023-06-19T08:19:56;17.60;99.90
35607;DHT22;21729;58.392;15.656;2023-06-19T08:22:23;17.70;99.90
35607;DHT22;21729;58.392;15.656;2023-06-19T08:24:51;17.90;99.90
35607;DHT22;21729;58.392;15.656;2023-06-19T08:27:19;18.00;99.90
35607;DHT22;21729;58.392;15.656;2023-06-19T08:29:46;17.90;99.90
35607;DHT22;21729;58.392;15.656;2023-06-19T08:32:14;18.00;99.90
35607;DHT22;21729;58.392;15.656;2023-06-19T08:34:41;17.90;99.90
35607;DHT22;21729;58.392;15.656;2023-06-19T08:37:08;17.90;99.90
35607;DHT22;21729;58.392;15.656;2023-06-19T08:39:35;18.20;99.90
35607;DHT22;21729;58.392;15.656;2023-06-19T08:42:04;18.60;99.90
35607;DHT22;21729;58.392;15.656;2023-06-19T08:44:34;18.90;99.90
35607;DHT22;21729;58.392;15.656;2023-06-19T08:47:02;19.10;99.90
35607;DHT22;21729;58.392;15.656;2023-06-19T08:49:30;19.30;99.90
35607;DHT22;21729;58.392;15.656;2023-06-19T08:51:59;19.20;17.60
35607;DHT22;21729;58.392;15.656;2023-06-19T08:54:26;19.30;70.30
35607;DHT22;21729;58.392;15.656;2023-06-19T08:56:53;19.20;45.40
35607;DHT22;21729;58.392;15.656;2023-06-19T08:59:22;19.00;49.00
35607;DHT22;21729;58.392;15.656;2023-06-19T09:01:52;19.40;99.90
35607;DHT22;21729;58.392;15.656;2023-06-19T09:04:21;19.30;39.80
35607;DHT22;21729;58.392;15.656;2023-06-19T09:06:49;19.70;81.90
35607;DHT22;21729;58.392;15.656;2023-06-19T09:09:17;19.50;1.00
35607;DHT22;21729;58.392;15.656;2023-06-19T09:11:59;19.40;1.00
35607;DHT22;21729;58.392;15.656;2023-06-19T09:14:36;19.50;9.50
35607;DHT22;21729;58.392;15.656;2023-06-19T09:17:07;19.70;1.00
35607;DHT22;21729;58.392;15.656;2023-06-19T09:19:34;19.50;38.20
35607;DHT22;21729;58.392;15.656;2023-06-19T09:22:02;19.30;71.60
35607;DHT22;21729;58.392;15.656;2023-06-19T09:24:37;19.10;57.80
35607;DHT22;21729;58.392;15.656;2023-06-19T09:27:08;18.70;99.90
35607;DHT22;21729;58.392;15.656;2023-06-19T09:29:38;18.80;99.90
35607;DHT22;21729;58.392;15.656;2023-06-19T09:32:21;18.90;99.90
35607;DHT22;21729;58.392;15.656;2023-06-19T09:34:49;19.20;80.30
35607;DHT22;21729;58.392;15.656;2023-06-19T09:37:21;19.40;40.00
35607;DHT22;21729;58.392;15.656;2023-06-19T09:39:52;19.80;1.00
35607;DHT22;21729;58.392;15.656;2023-06-19T09:42:27;19.90;1.00
35607;DHT22;21729;58.392;15.656;2023-06-19T09:44:59;19.80;1.70
35607;DHT22;21729;58.392;15.656;2023-06-19T09:47:31;19.50;1.00
35607;DHT22;21729;58.392;15.656;2023-06-19T09:49:59;19.20;1.00
35607;DHT22;21729;58.392;15.656;2023-06-19T09:52:28;19.10;42.60
35607;DHT22;21729;58.392;15.656;2023-06-19T09:54:55;19.10;50.80
35607;DHT22;21729;58.392;15.656;2023-06-19T09:57:23;19.20;70.50
35607;DHT22;21729;58.392;15.656;2023-06-19T09:59:54;19.20;18.50
35607;DHT22;21729;58.392;15.656;2023-06-19T10:02:24;19.30;19.00
35607;DHT22;21729;58.392;15.656;2023-06-19T10:04:55;19.30;17.90
35607;DHT22;21729;58.392;15.656;2023-06-19T10:07:25;19.60;15.50
35607;DHT22;21729;58.392;15.656;2023-06-19T10:09:58;19.80;1.00
35607;DHT22;21729;58.392;15.656;2023-06-19T10:12:37;20.00;6.50
35607;DHT22;21729;58.392;15.656;2023-06-19T10:15:13;20.00;1.00
35607;DHT22;21729;58.392;15.656;2023-06-19T10:17:46;19.70;1.00
35607;DHT22;21729;58.392;15.656;2023-06-19T10:20:26;19.90;70.20
35607;DHT22;21729;58.392;15.656;2023-06-19T10:23:03;20.10;99.90
35607;DHT22;21729;58.392;15.656;2023-06-19T10:25:32;20.40;1.00
35607;DHT22;21729;58.392;15.656;2023-06-19T10:27:59;20.60;1.00
35607;DHT22;21729;58.392;15.656;2023-06-19T10:30:27;20.90;1.00
35607;DHT22;21729;58.392;15.656;2023-06-19T10:32:55;21.20;1.00
35607;DHT22;21729;58.392;15.656;2023-06-19T10:35:24;21.20;1.00
35607;DHT22;21729;58.392;15.656;2023-06-19T10:37:51;20.70;1.00
35607;DHT22;21729;58.392;15.656;2023-06-19T10:40:18;20.60;1.00
35607;DHT22;21729;58.392;15.656;2023-06-19T10:42:46;20.60;1.00
35607;DHT22;21729;58.392;15.656;2023-06-19T10:45:14;20.60;1.00
35607;DHT22;21729;58.392;15.656;2023-06-19T10:47:43;20.40;1.00
35607;DHT22;21729;58.392;15.656;2023-06-19T10:50:11;20.30;1.00
35607;DHT22;21729;58.392;15.656;2023-06-19T10:52:46;20.20;1.00
35607;DHT22;21729;58.392;15.656;2023-06-19T10:55:14;20.40;1.00
35607;DHT22;21729;58.392;15.656;2023-06-19T10:57:44;20.40;1.00
35607;DHT22;21729;58.392;15.656;2023-06-19T11:00:22;20.30;1.00
35607;DHT22;21729;58.392;15.656;2023-06-19T11:02:50;20.30;1.00
35607;DHT22;21729;58.392;15.656;2023-06-19T11:05:20;20.10;1.00
35607;DHT22;21729;58.392;15.656;2023-06-19T11:07:52;20.30;1.00
35607;DHT22;21729;58.392;15.656;2023-06-19T11:10:23;20.20;1.00
35607;DHT22;21729;58.392;15.656;2023-06-19T11:12:53;20.30;1.00
35607;DHT22;21729;58.392;15.656;2023-06-19T11:15:28;20.30;1.00
35607;DHT22;21729;58.392;15.656;2023-06-19T11:17:56;20.30;1.00
35607;DHT22;21729;58.392;15.656;2023-06-19T11:20:23;20.50;1.00
35607;DHT22;21729;58.392;15.656;2023-06-19T11:22:57;20.50;1.00
35607;DHT22;21729;58.392;15.656;2023-06-19T11:25:34;20.80;1.00
35607;DHT22;21729;58.392;15.656;2023-06-19T11:28:02;21.20;1.00
35607;DHT22;21729;58.392;15.656;2023-06-19T11:30:33;21.50;99.90
35607;DHT22;21729;58.392;15.656;2023-06-19T11:33:01;22.20;99.90
35607;DHT22;21729;58.392;15.656;2023-06-19T11:35:32;22.40;99.90
35607;DHT22;21729;58.392;15.656;2023-06-19T11:38:03;22.90;99.90
35607;DHT22;21729;58.392;15.656;2023-06-19T11:40:39;22.80;99.90
35607;DHT22;21729;58.392;15.656;2023-06-19T11:43:06;22.60;99.90
35607;DHT22;21729;58.392;15.656;2023-06-19T11:45:45;22.50;99.90
35607;DHT22;21729;58.392;15.656;2023-06-19T11:48:13;22.40;99.90
35607;DHT22;21729;58.392;15.656;2023-06-19T11:50:40;22.50;99.90
35607;DHT22;21729;58.392;15.656;2023-06-19T11:53:08;22.40;99.90
35607;DHT22;21729;58.392;15.656;2023-06-19T11:55:35;22.50;99.90
35607;DHT22;21729;58.392;15.656;2023-06-19T11:58:02;22.60;99.90
35607;DHT22;21729;58.392;15.656;2023-06-19T12:00:30;22.70;99.90
35607;DHT22;21729;58.392;15.656;2023-06-19T12:02:57;22.80;99.90
35607;DHT22;21729;58.392;15.656;2023-06-19T12:05:24;22.80;99.90
35607;DHT22;21729;58.392;15.656;2023-06-19T12:07:51;22.70;33.70
35607;DHT22;21729;58.392;15.656;2023-06-19T12:10:20;22.90;99.90
35607;DHT22;21729;58.392;15.656;2023-06-19T12:12:47;22.90;12.10
35607;DHT22;21729;58.392;15.656;2023-06-19T12:15:15;23.00;66.90
35607;DHT22;21729;58.392;15.656;2023-06-19T12:17:42;23.10;99.90
35607;DHT22;21729;58.392;15.656;2023-06-19T12:20:10;23.10;18.90
35607;DHT22;21729;58.392;15.656;2023-06-19T12:22:39;22.40;99.90
35607;DHT22;21729;58.392;15.656;2023-06-19T12:25:07;22.50;99.90
35607;DHT22;21729;58.392;15.656;2023-06-19T12:27:36;22.70;99.90
35607;DHT22;21729;58.392;15.656;2023-06-19T12:30:03;22.60;99.90
35607;DHT22;21729;58.392;15.656;2023-06-19T12:32:31;22.70;99.90
35607;DHT22;21729;58.392;15.656;2023-06-19T12:34:58;23.00;99.90
35607;DHT22;21729;58.392;15.656;2023-06-19T12:37:25;22.50;99.90
35607;DHT22;21729;58.392;15.656;2023-06-19T12:39:52;22.10;99.90
35607;DHT22;21729;58.392;15.656;2023-06-19T12:42:20;22.50;99.90
35607;DHT22;21729;58.392;15.656;2023-06-19T12:44:48;22.30;99.90
35607;DHT22;21729;58.392;15.656;2023-06-19T12:47:15;22.40;99.90
35607;DHT22;21729;58.392;15.656;2023-06-19T12:49:43;22.60;99.90
35607;DHT22;21729;58.392;15.656;2023-06-19T12:52:11;22.50;99.90
35607;DHT22;21729;58.392;15.656;2023-06-19T12:54:38;22.30;99.90
35607;DHT22;21729;58.392;15.656;2023-06-19T12:57:08;22.20;12.40
35607;DHT22;21729;58.392;15.656;2023-06-19T12:59:35;22.00;91.00
35607;DHT22;21729;58.392;15.656;2023-06-19T13:02:04;22.00;82.30
35607;DHT22;21729;58.392;15.656;2023-06-19T13:04:31;22.30;92.20
35607;DHT22;21729;58.392;15.656;2023-06-19T13:06:58;22.90;99.90
35607;DHT22;21729;58.392;15.656;2023-06-19T13:09:25;23.10;86.40
35607;DHT22;21729;58.392;15.656;2023-06-19T13:11:52;23.20;92.80
35607;DHT22;21729;58.392;15.656;2023-06-19T13:14:19;23.30;16.60
35607;DHT22;21729;58.392;15.656;2023-06-19T13:16:46;23.70;11.50
35607;DHT22;21729;58.392;15.656;2023-06-19T13:19:15;23.70;1.00
35607;DHT22;21729;58.392;15.656;2023-06-19T13:21:43;23.80;32.20
35607;DHT22;21729;58.392;15.656;2023-06-19T13:24:10;23.50;99.90
35607;DHT22;21729;58.392;15.656;2023-06-19T13:26:37;23.30;99.90
35607;DHT22;21729;58.392;15.656;2023-06-19T13:29:04;23.50;99.90
35607;DHT22;21729;58.392;15.656;2023-06-19T13:31:31;23.50;99.90
35607;DHT22;21729;58.392;15.656;2023-06-19T13:33:59;23.30;99.90
35607;DHT22;21729;58.392;15.656;2023-06-19T13:36:28;23.20;79.70
35607;DHT22;21729;58.392;15.656;2023-06-19T13:38:55;24.10;78.40
35607;DHT22;21729;58.392;15.656;2023-06-19T13:41:22;24.00;12.80
35607;DHT22;21729;58.392;15.656;2023-06-19T13:43:50;23.70;1.00
35607;DHT22;21729;58.392;15.656;2023-06-19T13:46:19;24.00;1.00
35607;DHT22;21729;58.392;15.656;2023-06-19T13:48:47;23.60;1.00
35607;DHT22;21729;58.392;15.656;2023-06-19T13:51:17;23.50;90.60
35607;DHT22;21729;58.392;15.656;2023-06-19T13:53:45;23.70;1.00
35607;DHT22;21729;58.392;15.656;2023-06-19T13:56:13;23.00;42.60
35607;DHT22;21729;58.392;15.656;2023-06-19T13:58:40;23.10;67.70
35607;DHT22;21729;58.392;15.656;2023-06-19T14:01:07;23.00;95.20
35607;DHT22;21729;58.392;15.656;2023-06-19T14:06:02;22.60;78.30
35607;DHT22;21729;58.392;15.656;2023-06-19T14:08:30;22.70;99.90
35607;DHT22;21729;58.392;15.656;2023-06-19T14:10:58;22.70;99.90
35607;DHT22;21729;58.392;15.656;2023-06-19T14:13:25;22.80;99.90
35607;DHT22;21729;58.392;15.656;2023-06-19T14:15:53;22.70;99.90
35607;DHT22;21729;58.392;15.656;2023-06-19T14:18:20;22.60;99.90
35607;DHT22;21729;58.392;15.656;2023-06-19T14:20:47;22.60;99.90
35607;DHT22;21729;58.392;15.656;2023-06-19T14:23:14;22.70;99.90
35607;DHT22;21729;58.392;15.656;2023-06-19T14:25:42;22.30;99.90
35607;DHT22;21729;58.392;15.656;2023-06-19T14:28:10;22.50;99.90
35607;DHT22;21729;58.392;15.656;2023-06-19T14:30:39;22.50;99.90
35607;DHT22;21729;58.392;15.656;2023-06-19T14:33:06;22.30;99.90
35607;DHT22;21729;58.392;15.656;2023-06-19T14:35:40;22.30;99.90
35607;DHT22;21729;58.392;15.656;2023-06-19T14:38:07;22.20;99.90
35607;DHT22;21729;58.392;15.656;2023-06-19T14:40:34;22.10;99.90
35607;DHT22;21729;58.392;15.656;2023-06-19T14:43:01;22.00;99.90
35607;DHT22;21729;58.392;15.656;2023-06-19T14:45:33;21.60;99.90
35607;DHT22;21729;58.392;15.656;2023-06-19T14:48:00;21.30;99.90
35607;DHT22;21729;58.392;15.656;2023-06-19T14:50:27;21.50;99.90
35607;DHT22;21729;58.392;15.656;2023-06-19T14:52:55;21.50;99.90
35607;DHT22;21729;58.392;15.656;2023-06-19T14:55:22;21.60;99.90
35607;DHT22;21729;58.392;15.656;2023-06-19T14:57:49;21.60;99.90
35607;DHT22;21729;58.392;15.656;2023-06-19T15:00:16;21.70;99.90
35607;DHT22;21729;58.392;15.656;2023-06-19T15:02:45;21.50;99.90
35607;DHT22;21729;58.392;15.656;2023-06-19T15:05:12;21.20;99.90
35607;DHT22;21729;58.392;15.656;2023-06-19T15:07:39;21.00;99.90
35607;DHT22;21729;58.392;15.656;2023-06-19T15:10:07;20.90;99.90
35607;DHT22;21729;58.392;15.656;2023-06-19T15:12:34;20.90;99.90
35607;DHT22;21729;58.392;15.656;2023-06-19T15:15:01;21.10;99.90
35607;DHT22;21729;58.392;15.656;2023-06-19T15:17:28;21.20;99.90
35607;DHT22;21729;58.392;15.656;2023-06-19T15:19:57;21.20;99.90
35607;DHT22;21729;58.392;15.656;2023-06-19T15:22:24;21.20;99.90
35607;DHT22;21729;58.392;15.656;2023-06-19T15:24:52;21.30;99.90
35607;DHT22;21729;58.392;15.656;2023-06-19T15:27:20;21.40;99.90
35607;DHT22;21729;58.392;15.656;2023-06-19T15:29:47;21.40;99.90
35607;DHT22;21729;58.392;15.656;2023-06-19T15:32:14;21.30;99.90
35607;DHT22;21729;58.392;15.656;2023-06-19T15:34:41;21.10;99.90
35607;DHT22;21729;58.392;15.656;2023-06-19T15:37:09;21.00;99.90
35607;DHT22;21729;58.392;15.656;2023-06-19T15:39:37;21.20;99.90
35607;DHT22;21729;58.392;15.656;2023-06-19T15:42:04;21.10;99.90
35607;DHT22;21729;58.392;15.656;2023-06-19T15:44:32;21.10;99.90
35607;DHT22;21729;58.392;15.656;2023-06-19T15:46:59;20.90;99.90
35607;DHT22;21729;58.392;15.656;2023-06-19T15:49:26;21.00;99.90
35607;DHT22;21729;58.392;15.656;2023-06-19T15:51:53;21.10;99.90
35607;DHT22;21729;58.392;15.656;2023-06-19T15:54:23;21.10;99.90
35607;DHT22;21729;58.392;15.656;2023-06-19T15:56:50;21.20;99.90
35607;DHT22;21729;58.392;15.656;2023-06-19T15:59:17;21.10;99.90
35607;DHT22;21729;58.392;15.656;2023-06-19T16:01:44;20.90;99.90
35607;DHT22;21729;58.392;15.656;2023-06-19T16:04:11;20.80;99.90
35607;DHT22;21729;58.392;15.656;2023-06-19T16:06:39;20.60;99.90
35607;DHT22;21729;58.392;15.656;2023-06-19T16:09:07;20.50;99.90
35607;DHT22;21729;58.392;15.656;2023-06-19T16:11:35;20.60;99.90
35607;DHT22;21729;58.392;15.656;2023-06-19T16:14:02;20.70;99.90
35607;DHT22;21729;58.392;15.656;2023-06-19T16:16:30;20.60;99.90
35607;DHT22;21729;58.392;15.656;2023-06-19T16:18:57;20.70;99.90
35607;DHT22;21729;58.392;15.656;2023-06-19T16:21:24;20.70;99.90
35607;DHT22;21729;58.392;15.656;2023-06-19T16:23:53;20.90;99.90
35607;DHT22;21729;58.392;15.656;2023-06-19T16:26:20;20.90;99.90
35607;DHT22;21729;58.392;15.656;2023-06-19T16:28:49;20.90;99.90
35607;DHT22;21729;58.392;15.656;2023-06-19T16:31:16;20.90;99.90
35607;DHT22;21729;58.392;15.656;2023-06-19T16:33:44;20.70;99.90
35607;DHT22;21729;58.392;15.656;2023-06-19T16:36:11;20.70;99.90
35607;DHT22;21729;58.392;15.656;2023-06-19T16:38:38;20.60;99.90
35607;DHT22;21729;58.392;15.656;2023-06-19T16:41:06;20.40;99.90
35607;DHT22;21729;58.392;15.656;2023-06-19T16:43:33;20.20;99.90
35607;DHT22;21729;58.392;15.656;2023-06-19T16:46:01;20.20;99.90
35607;DHT22;21729;58.392;15.656;2023-06-19T16:48:28;20.20;99.90
35607;DHT22;21729;58.392;15.656;2023-06-19T16:50:55;20.30;99.90
35607;DHT22;21729;58.392;15.656;2023-06-19T16:53:22;20.40;99.90
35607;DHT22;21729;58.392;15.656;2023-06-19T16:55:49;20.40;99.90
35607;DHT22;21729;58.392;15.656;2023-06-19T16:58:21;20.40;99.90
35607;DHT22;21729;58.392;15.656;2023-06-19T17:00:49;20.40;99.90
35607;DHT22;21729;58.392;15.656;2023-06-19T17:03:18;20.40;99.90
35607;DHT22;21729;58.392;15.656;2023-06-19T17:05:47;20.30;99.90
35607;DHT22;21729;58.392;15.656;2023-06-19T17:08:16;20.30;99.90
35607;DHT22;21729;58.392;15.656;2023-06-19T17:10:43;20.20;99.90
35607;DHT22;21729;58.392;15.656;2023-06-19T17:13:10;20.20;99.90
35607;DHT22;21729;58.392;15.656;2023-06-19T17:15:37;20.30;99.90
35607;DHT22;21729;58.392;15.656;2023-06-19T17:18:04;20.30;99.90
35607;DHT22;21729;58.392;15.656;2023-06-19T17:20:33;20.20;99.90
35607;DHT22;21729;58.392;15.656;2023-06-19T17:23:00;20.10;99.90
35607;DHT22;21729;58.392;15.656;2023-06-19T17:25:28;20.10;99.90
35607;DHT22;21729;58.392;15.656;2023-06-19T17:27:55;20.10;99.90
35607;DHT22;21729;58.392;15.656;2023-06-19T17:30:22;20.10;99.90
35607;DHT22;21729;58.392;15.656;2023-06-19T17:32:52;20.00;99.90
35607;DHT22;21729;58.392;15.656;2023-06-19T17:35:19;20.00;99.90
35607;DHT22;21729;58.392;15.656;2023-06-19T17:37:48;20.00;99.90
35607;DHT22;21729;58.392;15.656;2023-06-19T17:40:15;20.10;99.90
35607;DHT22;21729;58.392;15.656;2023-06-19T17:42:43;20.10;99.90
35607;DHT22;21729;58.392;15.656;2023-06-19T17:45:10;20.10;99.90
35607;DHT22;21729;58.392;15.656;2023-06-19T17:47:38;20.10;99.90
35607;DHT22;21729;58.392;15.656;2023-06-19T17:50:06;20.00;99.90
35607;DHT22;21729;58.392;15.656;2023-06-19T17:52:33;20.00;99.90
35607;DHT22;21729;58.392;15.656;2023-06-19T17:55:02;20.00;1.00
35607;DHT22;21729;58.392;15.656;2023-06-19T17:57:29;19.90;1.00
35607;DHT22;21729;58.392;15.656;2023-06-19T17:59:56;19.80;1.00
35607;DHT22;21729;58.392;15.656;2023-06-19T18:02:24;19.80;1.00
35607;DHT22;21729;58.392;15.656;2023-06-19T18:04:51;19.70;1.00
35607;DHT22;21729;58.392;15.656;2023-06-19T18:07:18;19.60;1.00
35607;DHT22;21729;58.392;15.656;2023-06-19T18:09:45;19.50;1.00
35607;DHT22;21729;58.392;15.656;2023-06-19T18:12:14;19.50;1.00
35607;DHT22;21729;58.392;15.656;2023-06-19T18:14:43;19.50;1.00
35607;DHT22;21729;58.392;15.656;2023-06-19T18:17:10;19.40;1.00
35607;DHT22;21729;58.392;15.656;2023-06-19T18:19:38;19.40;1.00
35607;DHT22;21729;58.392;15.656;2023-06-19T18:22:06;19.30;1.00
35607;DHT22;21729;58.392;15.656;2023-06-19T18:24:33;19.20;1.00
35607;DHT22;21729;58.392;15.656;2023-06-19T18:27:00;19.10;1.00
35607;DHT22;21729;58.392;15.656;2023-06-19T18:29:29;19.10;1.00
35607;DHT22;21729;58.392;15.656;2023-06-19T18:31:57;19.10;1.00
35607;DHT22;21729;58.392;15.656;2023-06-19T18:34:24;19.00;1.00
35607;DHT22;21729;58.392;15.656;2023-06-19T18:36:51;18.90;1.00
35607;DHT22;21729;58.392;15.656;2023-06-19T18:39:18;18.80;1.00
35607;DHT22;21729;58.392;15.656;2023-06-19T18:41:45;18.80;1.00
35607;DHT22;21729;58.392;15.656;2023-06-19T18:44:13;18.80;1.00
35607;DHT22;21729;58.392;15.656;2023-06-19T18:46:41;18.80;1.00
35607;DHT22;21729;58.392;15.656;2023-06-19T18:49:09;18.80;1.00
35607;DHT22;21729;58.392;15.656;2023-06-19T18:51:36;18.70;1.00
35607;DHT22;21729;58.392;15.656;2023-06-19T18:54:03;18.60;2.50
35607;DHT22;21729;58.392;15.656;2023-06-19T18:56:30;18.50;10.40
35607;DHT22;21729;58.392;15.656;2023-06-19T18:58:58;18.40;30.70
35607;DHT22;21729;58.392;15.656;2023-06-19T19:01:25;18.40;26.60
35607;DHT22;21729;58.392;15.656;2023-06-19T19:03:53;18.30;35.80
35607;DHT22;21729;58.392;15.656;2023-06-19T19:06:20;18.20;61.80
35607;DHT22;21729;58.392;15.656;2023-06-19T19:08:47;18.20;57.70
35607;DHT22;21729;58.392;15.656;2023-06-19T19:11:21;18.20;61.20
35607;DHT22;21729;58.392;15.656;2023-06-19T19:13:48;18.00;99.90
35607;DHT22;21729;58.392;15.656;2023-06-19T19:16:15;18.00;99.90
35607;DHT22;21729;58.392;15.656;2023-06-19T19:18:43;17.90;99.90
35607;DHT22;21729;58.392;15.656;2023-06-19T19:21:12;17.90;99.90
35607;DHT22;21729;58.392;15.656;2023-06-19T19:23:39;17.80;99.90
35607;DHT22;21729;58.392;15.656;2023-06-19T19:26:07;17.70;99.90
35607;DHT22;21729;58.392;15.656;2023-06-19T19:28:34;17.60;99.90
35607;DHT22;21729;58.392;15.656;2023-06-19T19:31:02;17.70;99.90
35607;DHT22;21729;58.392;15.656;2023-06-19T19:33:29;17.70;99.90
35607;DHT22;21729;58.392;15.656;2023-06-19T19:35:56;17.60;99.90
35607;DHT22;21729;58.392;15.656;2023-06-19T19:38:25;17.30;99.90
35607;DHT22;21729;58.392;15.656;2023-06-19T19:40:52;17.20;99.90
35607;DHT22;21729;58.392;15.656;2023-06-19T19:43:19;17.10;99.90
35607;DHT22;21729;58.392;15.656;2023-06-19T19:45:47;17.00;99.90
35607;DHT22;21729;58.392;15.656;2023-06-19T19:48:14;17.10;99.90
35607;DHT22;21729;58.392;15.656;2023-06-19T19:50:41;17.20;99.90
35607;DHT22;21729;58.392;15.656;2023-06-19T19:53:08;17.20;99.90
35607;DHT22;21729;58.392;15.656;2023-06-19T19:55:37;17.10;99.90
35607;DHT22;21729;58.392;15.656;2023-06-19T19:58:04;17.10;99.90
35607;DHT22;21729;58.392;15.656;2023-06-19T20:00:31;17.10;99.90
35607;DHT22;21729;58.392;15.656;2023-06-19T20:03:00;17.00;99.90
35607;DHT22;21729;58.392;15.656;2023-06-19T20:05:27;17.00;99.90
35607;DHT22;21729;58.392;15.656;2023-06-19T20:07:54;17.00;99.90
35607;DHT22;21729;58.392;15.656;2023-06-19T20:10:22;16.80;99.90
35607;DHT22;21729;58.392;15.656;2023-06-19T20:12:50;16.80;99.90
35607;DHT22;21729;58.392;15.656;2023-06-19T20:15:17;16.70;99.90
35607;DHT22;21729;58.392;15.656;2023-06-19T20:17:45;16.70;99.90
35607;DHT22;21729;58.392;15.656;2023-06-19T20:20:12;16.70;99.90
35607;DHT22;21729;58.392;15.656;2023-06-19T20:22:39;16.70;99.90
35607;DHT22;21729;58.392;15.656;2023-06-19T20:25:07;16.70;99.90
35607;DHT22;21729;58.392;15.656;2023-06-19T20:27:34;16.70;99.90
35607;DHT22;21729;58.392;15.656;2023-06-19T20:30:04;16.60;99.90
35607;DHT22;21729;58.392;15.656;2023-06-19T20:32:31;16.50;99.90
35607;DHT22;21729;58.392;15.656;2023-06-19T20:34:58;16.50;99.90
35607;DHT22;21729;58.392;15.656;2023-06-19T20:37:26;16.30;99.90
35607;DHT22;21729;58.392;15.656;2023-06-19T20:39:54;16.30;99.90
35607;DHT22;21729;58.392;15.656;2023-06-19T20:42:21;16.30;99.90
35607;DHT22;21729;58.392;15.656;2023-06-19T20:44:50;16.20;99.90
35607;DHT22;21729;58.392;15.656;2023-06-19T20:47:19;16.10;99.90
35607;DHT22;21729;58.392;15.656;2023-06-19T20:49:46;16.10;99.90
35607;DHT22;21729;58.392;15.656;2023-06-19T20:52:13;16.10;99.90
35607;DHT22;21729;58.392;15.656;2023-06-19T20:54:40;16.00;99.90
35607;DHT22;21729;58.392;15.656;2023-06-19T20:57:08;15.90;99.90
35607;DHT22;21729;58.392;15.656;2023-06-19T20:59:35;15.90;99.90
35607;DHT22;21729;58.392;15.656;2023-06-19T21:02:02;15.90;99.90
35607;DHT22;21729;58.392;15.656;2023-06-19T21:04:31;15.80;99.90
35607;DHT22;21729;58.392;15.656;2023-06-19T21:06:59;15.70;99.90
35607;DHT22;21729;58.392;15.656;2023-06-19T21:09:26;15.70;99.90
35607;DHT22;21729;58.392;15.656;2023-06-19T21:11:53;15.70;99.90
35607;DHT22;21729;58.392;15.656;2023-06-19T21:14:20;15.60;99.90
35607;DHT22;21729;58.392;15.656;2023-06-19T21:16:47;15.40;99.90
35607;DHT22;21729;58.392;15.656;2023-06-19T21:19:15;15.40;99.90
35607;DHT22;21729;58.392;15.656;2023-06-19T21:21:43;15.40;1.00
35607;DHT22;21729;58.392;15.656;2023-06-19T21:24:10;15.40;1.00
35607;DHT22;21729;58.392;15.656;2023-06-19T21:26:37;15.40;1.00
35607;DHT22;21729;58.392;15.656;2023-06-19T21:29:04;15.40;1.00
35607;DHT22;21729;58.392;15.656;2023-06-19T21:31:31;15.30;1.00
35607;DHT22;21729;58.392;15.656;2023-06-19T21:33:58;15.20;1.00
35607;DHT22;21729;58.392;15.656;2023-06-19T21:36:26;15.20;1.00
35607;DHT22;21729;58.392;15.656;2023-06-19T21:38:54;15.20;1.00
35607;DHT22;21729;58.392;15.656;2023-06-19T21:41:21;15.10;1.00
35607;DHT22;21729;58.392;15.656;2023-06-19T21:43:48;15.10;1.00
35607;DHT22;21729;58.392;15.656;2023-06-19T21:46:16;15.00;1.00
35607;DHT22;21729;58.392;15.656;2023-06-19T21:48:43;15.00;1.00
35607;DHT22;21729;58.392;15.656;2023-06-19T21:51:10;15.00;1.00
35607;DHT22;21729;58.392;15.656;2023-06-19T21:53:37;14.90;1.00